createdAt,value
2022-10-10T00:01:14.813Z,12.20
2022-10-10T00:03:42.020Z,12.00
2022-10-10T00:06:09.197Z,11.23
2022-10-10T00:08:35.862Z,11.48
2022-10-10T00:11:02.390Z,11.38
2022-10-10T00:13:28.827Z,12.23
2022-10-10T00:15:55.246Z,11.43
2022-10-10T00:18:22.140Z,11.05
2022-10-10T00:20:51.727Z,12.38
2022-10-10T00:23:19.070Z,11.57
2022-10-10T00:25:45.466Z,11.82
2022-10-10T00:28:12.640Z,11.43
2022-10-10T00:30:39.661Z,11.65
2022-10-10T00:33:06.341Z,11.15
2022-10-10T00:35:32.759Z,11.65
2022-10-10T00:37:59.118Z,11.38
2022-10-10T00:40:25.822Z,11.32
2022-10-10T00:42:52.530Z,11.85
2022-10-10T00:45:39.626Z,12.43
2022-10-10T00:48:16.391Z,11.90
2022-10-10T00:50:52.409Z,12.45
2022-10-10T00:53:30.992Z,11.55
2022-10-10T00:55:57.896Z,11.93
2022-10-10T00:58:24.588Z,12.45
2022-10-10T01:00:52.368Z,11.23
2022-10-10T01:03:18.892Z,11.75
2022-10-10T01:05:47.537Z,11.68
2022-10-10T01:08:14.862Z,11.23
2022-10-10T01:11:20.141Z,11.82
2022-10-10T01:14:09.507Z,11.77
2022-10-10T01:16:55.091Z,11.60
2022-10-10T01:19:24.346Z,11.98
2022-10-10T01:22:09.609Z,11.40
2022-10-10T01:24:51.172Z,11.70
2022-10-10T01:27:47.650Z,11.70
2022-10-10T01:30:21.827Z,11.40
2022-10-10T01:32:54.402Z,12.05
2022-10-10T01:35:49.931Z,11.93
2022-10-10T01:38:39.018Z,11.23
2022-10-10T01:41:16.181Z,11.23
2022-10-10T01:43:42.945Z,11.85
2022-10-10T01:46:16.307Z,11.35
2022-10-10T01:48:50.126Z,12.43
2022-10-10T01:51:40.835Z,12.23
2022-10-10T01:54:24.427Z,11.73
2022-10-10T01:57:15.759Z,12.13
2022-10-10T02:00:09.066Z,11.60
2022-10-10T02:03:01.819Z,11.93
2022-10-10T02:05:28.146Z,11.73
2022-10-10T02:08:03.245Z,11.65
2022-10-10T02:10:37.400Z,11.77
2022-10-10T02:13:05.343Z,12.50
2022-10-10T02:15:41.224Z,11.40
2022-10-10T02:18:11.857Z,12.00
2022-10-10T02:20:39.569Z,11.55
2022-10-10T02:23:07.103Z,11.52
2022-10-10T02:25:39.092Z,12.27
2022-10-10T02:28:17.600Z,11.77
2022-10-10T02:30:46.898Z,11.65
2022-10-10T02:33:19.341Z,11.95
2022-10-10T02:35:50.186Z,11.20
2022-10-10T02:38:18.391Z,12.48
2022-10-10T02:40:47.605Z,12.10
2022-10-10T02:43:15.266Z,12.30
2022-10-10T02:45:43.925Z,12.48
2022-10-10T02:48:10.553Z,12.30
2022-10-10T02:50:37.587Z,12.10
2022-10-10T02:53:04.083Z,11.88
2022-10-10T02:55:30.458Z,12.32
2022-10-10T02:57:57.071Z,11.90
2022-10-10T03:00:23.402Z,12.02
2022-10-10T03:02:50.224Z,11.77
2022-10-10T03:05:16.836Z,11.93
2022-10-10T03:07:43.236Z,11.73
2022-10-10T03:10:10.772Z,11.70
2022-10-10T03:12:37.238Z,11.57
2022-10-10T03:15:09.188Z,12.50
2022-10-10T03:17:37.844Z,11.88
2022-10-10T03:20:05.024Z,12.02
2022-10-10T03:22:31.451Z,11.65
2022-10-10T03:24:57.785Z,12.43
2022-10-10T03:27:24.265Z,12.35
2022-10-10T03:29:50.663Z,12.55
2022-10-10T03:32:17.019Z,12.65
2022-10-10T03:34:43.427Z,13.15
2022-10-10T03:37:10.142Z,11.52
2022-10-10T03:39:36.539Z,12.85
2022-10-10T03:42:03.054Z,12.73
2022-10-10T03:44:29.397Z,11.95
2022-10-10T03:46:55.767Z,12.70
2022-10-10T03:49:22.300Z,11.95
2022-10-10T03:51:48.867Z,12.10
2022-10-10T03:54:15.254Z,11.98
2022-10-10T03:56:41.593Z,12.73
2022-10-10T03:59:08.174Z,13.02
2022-10-10T04:01:34.842Z,12.90
2022-10-10T04:04:01.479Z,12.70
2022-10-10T04:06:28.410Z,12.55
2022-10-10T04:08:54.933Z,13.50
2022-10-10T04:11:22.128Z,12.55
2022-10-10T04:13:48.670Z,13.30
2022-10-10T04:16:15.251Z,12.35
2022-10-10T04:18:41.743Z,11.90
2022-10-10T04:21:12.372Z,12.73
2022-10-10T04:23:40.533Z,12.70
2022-10-10T04:26:07.780Z,13.10
2022-10-10T04:28:34.419Z,12.40
2022-10-10T04:31:00.901Z,12.93
2022-10-10T04:33:27.239Z,12.43
2022-10-10T04:35:53.696Z,12.98
2022-10-10T04:38:21.343Z,14.52
2022-10-10T04:40:49.978Z,13.57
2022-10-10T04:43:16.772Z,13.48
2022-10-10T04:45:43.142Z,14.20
2022-10-10T04:48:09.484Z,14.35
2022-10-10T04:50:35.950Z,13.85
2022-10-10T04:53:02.588Z,14.20
2022-10-10T04:55:29.121Z,14.27
2022-10-10T04:57:55.588Z,13.90
2022-10-10T05:00:21.951Z,14.00
2022-10-10T05:02:48.638Z,13.80
2022-10-10T05:05:15.525Z,13.82
2022-10-10T05:07:42.068Z,13.45
2022-10-10T05:10:08.907Z,13.00
2022-10-10T05:12:35.461Z,13.75
2022-10-10T05:15:01.850Z,13.27
2022-10-10T05:17:28.231Z,13.15
2022-10-10T05:19:54.631Z,13.93
2022-10-10T05:22:20.999Z,13.30
2022-10-10T05:24:47.364Z,13.68
2022-10-10T05:27:13.759Z,13.30
2022-10-10T05:29:40.159Z,14.05
2022-10-10T05:32:10.054Z,14.25
2022-10-10T05:34:39.629Z,13.48
2022-10-10T05:37:06.043Z,13.18
2022-10-10T05:39:32.565Z,13.77
2022-10-10T05:41:59.072Z,14.05
2022-10-10T05:44:25.415Z,13.00
2022-10-10T05:46:51.777Z,14.23
2022-10-10T05:49:18.235Z,13.55
2022-10-10T05:51:44.659Z,13.98
2022-10-10T05:54:11.293Z,15.13
2022-10-10T05:56:37.858Z,13.57
2022-10-10T05:59:04.286Z,14.48
2022-10-10T06:01:30.865Z,14.68
2022-10-10T06:03:57.286Z,14.05
2022-10-10T06:06:25.364Z,13.35
2022-10-10T06:08:52.208Z,13.63
2022-10-10T06:11:20.490Z,13.75
2022-10-10T06:13:49.750Z,14.43
2022-10-10T06:16:16.755Z,13.95
2022-10-10T06:18:43.142Z,15.57
2022-10-10T06:21:11.644Z,14.30
2022-10-10T06:23:38.218Z,14.20
2022-10-10T06:26:04.650Z,14.52
2022-10-10T06:28:31.060Z,14.00
2022-10-10T06:31:01.946Z,14.13
2022-10-10T06:33:28.382Z,14.27
2022-10-10T06:35:55.106Z,13.75
2022-10-10T06:38:22.075Z,14.45
2022-10-10T06:40:48.491Z,14.60
2022-10-10T06:43:16.296Z,13.85
2022-10-10T06:45:45.884Z,14.00
2022-10-10T06:48:14.075Z,13.77
2022-10-10T06:50:40.486Z,14.02
2022-10-10T06:53:07.127Z,14.23
2022-10-10T06:55:33.498Z,14.82
2022-10-10T06:57:59.919Z,15.10
2022-10-10T07:00:26.622Z,14.13
2022-10-10T07:02:53.421Z,14.35
2022-10-10T07:05:20.047Z,13.60
2022-10-10T07:07:46.536Z,14.57
2022-10-10T07:10:14.909Z,14.27
2022-10-10T07:12:44.803Z,14.63
2022-10-10T07:17:38.717Z,13.98
2022-10-10T07:20:05.761Z,13.27
2022-10-10T07:22:32.235Z,13.55
2022-10-10T07:24:58.589Z,13.77
2022-10-10T07:27:24.977Z,13.68
2022-10-10T07:29:51.379Z,13.68
2022-10-10T07:32:17.856Z,13.55
2022-10-10T07:34:44.214Z,13.43
2022-10-10T07:37:10.630Z,13.77
2022-10-10T07:39:37.139Z,14.13
2022-10-10T07:42:03.763Z,13.80
2022-10-10T07:44:34.275Z,14.40
2022-10-10T07:47:00.991Z,14.05
2022-10-10T07:49:27.503Z,13.98
2022-10-10T07:51:58.590Z,13.85
2022-10-10T07:54:28.124Z,13.60
2022-10-10T07:56:54.608Z,13.18
2022-10-10T07:59:24.256Z,12.85
2022-10-10T08:01:51.313Z,12.45
2022-10-10T08:04:18.655Z,13.45
2022-10-10T08:06:45.049Z,13.45
2022-10-10T08:09:11.615Z,12.80
2022-10-10T08:11:38.150Z,13.57
2022-10-10T08:14:04.585Z,14.38
2022-10-10T08:16:31.051Z,13.57
2022-10-10T08:18:57.571Z,12.77
2022-10-10T08:21:24.083Z,12.95
2022-10-10T08:23:50.465Z,12.98
2022-10-10T08:26:18.168Z,12.27
2022-10-10T08:28:45.266Z,12.73
2022-10-10T08:31:17.252Z,12.70
2022-10-10T08:33:45.936Z,12.10
2022-10-10T08:36:15.482Z,12.32
2022-10-10T08:38:42.280Z,12.70
2022-10-10T08:41:34.933Z,14.40
2022-10-10T08:44:06.386Z,14.18
2022-10-10T08:46:41.045Z,13.23
2022-10-10T08:49:29.987Z,13.48
2022-10-10T08:52:05.277Z,12.00
2022-10-10T08:54:33.616Z,12.50
2022-10-10T08:57:03.431Z,12.60
2022-10-10T08:59:35.498Z,12.48
2022-10-10T09:02:50.284Z,12.52
2022-10-10T09:05:26.987Z,12.32
2022-10-10T09:07:56.316Z,12.13
2022-10-10T09:10:39.656Z,11.73
2022-10-10T09:13:12.807Z,12.40
2022-10-10T09:15:54.426Z,11.88
2022-10-10T09:18:32.856Z,12.68
2022-10-10T09:21:12.667Z,12.70
2022-10-10T09:23:49.081Z,12.15
2022-10-10T09:26:20.781Z,12.05
2022-10-10T09:29:15.826Z,12.18
2022-10-10T09:31:46.051Z,12.20
2022-10-10T09:36:45.046Z,13.10
2022-10-10T09:39:27.372Z,13.15
2022-10-10T09:42:01.732Z,12.18
2022-10-10T09:44:29.398Z,11.73
2022-10-10T09:46:56.229Z,10.90
2022-10-10T09:49:24.926Z,11.00
2022-10-10T09:51:52.016Z,11.10
2022-10-10T09:54:20.105Z,10.32
2022-10-10T09:56:58.033Z,10.02
2022-10-10T09:59:41.275Z,10.45
2022-10-10T10:02:25.258Z,10.38
2022-10-10T10:04:53.054Z,9.45
2022-10-10T10:07:21.030Z,10.20
2022-10-10T10:09:59.674Z,10.25
2022-10-10T10:12:36.818Z,10.23
2022-10-10T10:15:16.056Z,10.25
2022-10-10T10:17:42.676Z,10.10
2022-10-10T10:20:31.433Z,10.48
2022-10-10T10:22:57.879Z,10.45
2022-10-10T10:25:37.112Z,10.05
2022-10-10T10:28:14.932Z,10.57
2022-10-10T10:30:43.446Z,10.32
2022-10-10T10:33:18.665Z,10.27
2022-10-10T10:36:13.546Z,10.43
2022-10-10T10:38:39.971Z,10.65
2022-10-10T10:41:32.307Z,9.85
2022-10-10T10:44:14.764Z,9.90
2022-10-10T10:46:57.293Z,10.30
2022-10-10T10:50:08.618Z,10.20
2022-10-10T10:52:40.857Z,9.50
2022-10-10T10:55:33.234Z,10.07
2022-10-10T11:01:57.367Z,9.93
2022-10-10T11:05:17.267Z,10.13
2022-10-10T11:07:57.806Z,10.40
2022-10-10T11:10:35.154Z,10.00
2022-10-10T11:13:39.221Z,10.00
2022-10-10T11:16:46.792Z,10.00
2022-10-10T11:19:37.187Z,10.25
2022-10-10T11:22:13.883Z,9.85
2022-10-10T11:24:51.884Z,10.10
2022-10-10T11:27:39.228Z,9.95
2022-10-10T11:30:08.135Z,10.10
2022-10-10T11:32:48.530Z,10.73
2022-10-10T11:35:27.043Z,10.20
2022-10-10T11:38:01.343Z,10.30
2022-10-10T11:40:45.503Z,10.18
2022-10-10T11:43:19.593Z,9.90
2022-10-10T11:45:52.323Z,10.13
2022-10-10T11:48:35.536Z,9.45
2022-10-10T11:51:16.396Z,10.55
2022-10-10T11:53:45.777Z,10.20
2022-10-10T11:56:28.614Z,10.23
2022-10-10T11:59:01.861Z,10.57
2022-10-10T12:01:30.960Z,10.70
2022-10-10T12:03:57.536Z,10.93
2022-10-10T12:06:30.608Z,11.57
2022-10-10T12:09:03.688Z,12.07
2022-10-10T12:11:36.510Z,10.35
2022-10-10T12:14:07.263Z,10.50
2022-10-10T12:16:37.847Z,10.85
2022-10-10T12:19:07.091Z,10.90
2022-10-10T12:21:56.091Z,10.60
2022-10-10T12:24:24.213Z,10.73
2022-10-10T12:26:56.643Z,10.90
2022-10-10T12:30:01.618Z,10.18
2022-10-10T12:32:41.020Z,10.77
2022-10-10T12:35:29.335Z,10.43
2022-10-10T12:38:04.720Z,10.90
2022-10-10T12:40:32.893Z,10.50
2022-10-10T12:43:02.142Z,10.60
2022-10-10T12:45:28.532Z,10.27
2022-10-10T12:48:06.367Z,11.13
2022-10-10T12:50:39.749Z,10.75
2022-10-10T12:53:18.009Z,11.00
2022-10-10T12:55:51.872Z,10.98
2022-10-10T12:58:27.103Z,10.77
2022-10-10T13:00:57.909Z,10.82
2022-10-10T13:06:03.009Z,11.35
2022-10-10T13:08:30.586Z,11.50
2022-10-10T13:11:11.969Z,11.85
2022-10-10T13:13:40.421Z,11.60
2022-10-10T13:16:13.127Z,11.75
2022-10-10T13:18:52.598Z,11.27
2022-10-10T13:21:23.693Z,11.00
2022-10-10T13:26:44.875Z,11.27
2022-10-10T13:29:32.434Z,11.05
2022-10-10T13:32:23.995Z,11.10
2022-10-10T13:34:55.535Z,11.80
2022-10-10T13:37:22.885Z,11.65
2022-10-10T13:39:50.850Z,11.13
2022-10-10T13:42:39.714Z,11.20
2022-10-10T13:45:38.131Z,11.15
2022-10-10T13:48:04.445Z,10.95
2022-10-10T13:50:35.371Z,11.57
2022-10-10T13:53:27.147Z,11.73
2022-10-10T13:56:10.286Z,11.82
2022-10-10T13:58:56.188Z,13.82
2022-10-10T14:01:43.556Z,12.68
2022-10-10T14:04:12.916Z,12.07
2022-10-10T14:06:41.063Z,10.73
2022-10-10T14:09:15.778Z,13.02
2022-10-10T14:11:43.403Z,11.27
2022-10-10T14:14:17.632Z,11.07
2022-10-10T14:16:43.975Z,13.45
2022-10-10T14:19:19.412Z,10.20
2022-10-10T14:21:45.769Z,10.18
2022-10-10T14:24:12.182Z,12.30
2022-10-10T14:26:38.810Z,11.45
2022-10-10T14:29:10.443Z,10.80
2022-10-10T14:31:36.852Z,11.13
2022-10-10T14:34:03.284Z,10.57
2022-10-10T14:36:29.686Z,10.52
2022-10-10T14:38:56.108Z,11.30
2022-10-10T14:41:22.622Z,10.48
2022-10-10T14:43:49.003Z,10.63
2022-10-10T14:46:19.629Z,11.02
2022-10-10T14:48:46.876Z,10.73
2022-10-10T14:51:34.205Z,10.55
2022-10-10T14:54:11.870Z,10.95
2022-10-10T14:57:08.634Z,11.15
2022-10-10T14:59:49.254Z,10.93
2022-10-10T15:02:15.546Z,11.48
2022-10-10T15:04:42.102Z,10.98
2022-10-10T15:07:14.247Z,11.75
2022-10-10T15:09:51.523Z,11.20
2022-10-10T15:12:27.820Z,11.30
2022-10-10T15:14:54.214Z,11.13
2022-10-10T15:17:20.640Z,10.70
2022-10-10T15:19:47.012Z,11.93
2022-10-10T15:22:13.359Z,10.95
2022-10-10T15:24:39.719Z,11.45
2022-10-10T15:27:06.055Z,10.75
2022-10-10T15:29:32.539Z,10.75
2022-10-10T15:32:00.518Z,12.02
2022-10-10T15:34:27.228Z,11.82
2022-10-10T15:36:56.658Z,12.00
2022-10-10T15:39:23.193Z,11.25
2022-10-10T15:41:49.557Z,10.95
2022-10-10T15:44:18.133Z,11.38
2022-10-10T15:46:45.307Z,10.95
2022-10-10T15:49:13.450Z,10.65
2022-10-10T15:51:45.159Z,10.63
2022-10-10T15:54:12.431Z,10.55
2022-10-10T15:56:42.230Z,10.45
2022-10-10T15:59:09.490Z,11.55
2022-10-10T16:01:36.130Z,10.68
2022-10-10T16:04:04.592Z,11.23
2022-10-10T16:06:31.034Z,11.07
2022-10-10T16:09:23.411Z,11.10
2022-10-10T16:11:43.841Z,10.30
2022-10-10T16:14:10.695Z,10.32
2022-10-10T16:16:37.155Z,10.77
2022-10-10T16:19:03.695Z,12.10
2022-10-10T16:21:31.534Z,13.38
2022-10-10T16:23:58.307Z,15.35
2022-10-10T16:26:29.177Z,17.58
2022-10-10T16:28:56.762Z,18.88
2022-10-10T16:31:25.000Z,22.00
2022-10-10T16:33:52.174Z,24.02
2022-10-10T16:36:21.859Z,25.95
2022-10-10T16:38:49.984Z,26.73
2022-10-10T16:41:42.620Z,26.52
2022-10-10T16:44:04.562Z,26.67
2022-10-10T16:46:30.993Z,28.42
2022-10-10T16:48:59.515Z,29.45
2022-10-10T16:51:28.332Z,30.23
2022-10-10T16:53:55.530Z,30.50
2022-10-10T16:56:22.324Z,31.65
2022-10-10T16:58:50.616Z,31.13
2022-10-10T17:01:23.617Z,32.25
2022-10-10T17:03:51.340Z,33.45
2022-10-10T17:06:20.994Z,34.00
2022-10-10T17:08:49.455Z,34.00
2022-10-10T17:11:17.691Z,33.47
2022-10-10T17:13:44.874Z,34.08
2022-10-10T17:19:03.891Z,34.33
2022-10-10T17:21:31.354Z,35.67
2022-10-10T17:24:03.318Z,33.70
2022-10-10T17:26:29.694Z,30.48
2022-10-10T17:28:57.694Z,28.10
2022-10-10T17:31:25.274Z,27.55
2022-10-10T17:33:54.319Z,26.70
2022-10-10T17:36:23.747Z,26.83
2022-10-10T17:38:50.491Z,25.25
2022-10-10T17:41:18.432Z,25.85
2022-10-10T17:43:45.565Z,26.27
2022-10-10T17:46:35.750Z,26.23
2022-10-10T17:49:04.971Z,26.17
2022-10-10T17:51:31.388Z,27.33
2022-10-10T17:54:01.594Z,27.38
2022-10-10T17:58:54.700Z,27.30
2022-10-10T18:01:22.145Z,27.20
2022-10-10T18:03:49.012Z,27.98
2022-10-10T18:06:21.325Z,27.67
2022-10-10T18:08:51.939Z,28.48
2022-10-10T18:11:22.174Z,27.98
2022-10-10T18:16:18.670Z,27.95
2022-10-10T18:18:50.725Z,28.40
2022-10-10T18:21:18.927Z,29.00
2022-10-10T18:23:45.505Z,32.45
2022-10-10T18:26:15.398Z,29.70
2022-10-10T18:28:42.629Z,29.02
2022-10-10T18:31:17.934Z,29.00
2022-10-10T18:33:44.997Z,30.92
2022-10-10T18:36:14.494Z,31.65
2022-10-10T18:38:41.511Z,36.15
2022-10-10T18:41:13.571Z,36.47
2022-10-10T18:43:40.696Z,34.03
2022-10-10T18:46:09.037Z,33.28
2022-10-10T18:48:36.480Z,33.67
2022-10-10T18:51:11.834Z,33.20
2022-10-10T18:53:47.488Z,34.08
2022-10-10T18:56:16.557Z,31.80
2022-10-10T18:58:42.955Z,33.60
2022-10-10T19:01:12.779Z,53.60
2022-10-10T19:03:40.471Z,38.55
2022-10-10T19:06:09.737Z,36.00
2022-10-10T19:08:37.174Z,33.90
2022-10-10T19:11:05.956Z,34.40
2022-10-10T19:13:33.649Z,34.17
2022-10-10T19:16:04.780Z,34.67
2022-10-10T19:18:31.275Z,34.28
2022-10-10T19:21:04.415Z,34.00
2022-10-10T19:23:32.130Z,33.63
2022-10-10T19:26:02.268Z,34.35
2022-10-10T19:28:28.769Z,32.83
2022-10-10T19:30:55.771Z,33.00
2022-10-10T19:33:22.243Z,33.95
2022-10-10T19:35:51.423Z,35.80
2022-10-10T19:38:19.278Z,33.40
2022-10-10T19:40:47.115Z,32.42
2022-10-10T19:43:14.521Z,32.72
2022-10-10T19:45:42.565Z,32.55
2022-10-10T19:48:09.137Z,32.10
2022-10-10T19:50:40.696Z,31.50
2022-10-10T19:53:07.769Z,31.83
2022-10-10T19:55:34.238Z,32.55
2022-10-10T19:58:00.633Z,31.70
2022-10-10T20:00:27.357Z,32.13
2022-10-10T20:02:53.695Z,33.00
2022-10-10T20:05:20.847Z,32.33
2022-10-10T20:07:50.433Z,32.13
2022-10-10T20:10:17.568Z,34.63
2022-10-10T20:12:43.972Z,33.03
2022-10-10T20:15:10.779Z,32.47
2022-10-10T20:17:37.568Z,32.65
2022-10-10T20:20:05.312Z,33.13
2022-10-10T20:22:34.282Z,33.80
2022-10-10T20:25:01.329Z,32.88
2022-10-10T20:27:31.251Z,32.78
2022-10-10T20:29:58.239Z,32.60
2022-10-10T20:32:24.673Z,33.20
2022-10-10T20:34:51.040Z,32.75
2022-10-10T20:37:17.376Z,33.38
2022-10-10T20:39:43.738Z,33.03
2022-10-10T20:42:10.222Z,32.45
2022-10-10T20:44:36.809Z,32.15
2022-10-10T20:47:03.332Z,32.28
2022-10-10T20:49:29.841Z,32.90
2022-10-10T20:51:56.216Z,32.63
2022-10-10T20:54:24.617Z,32.03
2022-10-10T20:56:51.434Z,31.90
2022-10-10T20:59:19.410Z,31.88
2022-10-10T21:01:45.936Z,32.50
2022-10-10T21:04:14.039Z,32.65
2022-10-10T21:06:42.697Z,32.38
2022-10-10T21:09:10.886Z,31.80
2022-10-10T21:11:39.026Z,32.67
2022-10-10T21:14:06.545Z,32.17
2022-10-10T21:16:36.218Z,32.38
2022-10-10T21:19:03.489Z,32.10
2022-10-10T21:21:32.482Z,31.88
2022-10-10T21:23:59.491Z,31.88
2022-10-10T21:26:28.156Z,31.95
2022-10-10T21:28:55.838Z,32.53
2022-10-10T21:31:31.225Z,31.67
2022-10-10T21:33:59.949Z,31.95
2022-10-10T21:36:26.729Z,31.73
2022-10-10T21:38:55.890Z,31.77
2022-10-10T21:41:23.649Z,30.83
2022-10-10T21:43:54.599Z,32.47
2022-10-10T21:46:24.338Z,32.05
2022-10-10T21:48:53.806Z,31.13
2022-10-10T21:51:21.464Z,32.33
2022-10-10T21:53:48.459Z,31.15
2022-10-10T21:56:15.244Z,31.52
2022-10-10T21:58:43.764Z,31.63
2022-10-10T22:01:13.230Z,31.08
2022-10-10T22:03:39.635Z,31.30
2022-10-10T22:06:10.500Z,31.52
2022-10-10T22:08:38.155Z,31.65
2022-10-10T22:11:07.504Z,32.70
2022-10-10T22:13:33.990Z,31.40
2022-10-10T22:16:01.102Z,31.63
2022-10-10T22:18:27.664Z,32.10
2022-10-10T22:20:54.369Z,32.88
2022-10-10T22:23:21.282Z,32.03
2022-10-10T22:25:49.659Z,31.40
2022-10-10T22:28:16.865Z,32.15
2022-10-10T22:30:43.962Z,32.83
2022-10-10T22:33:10.687Z,32.20
2022-10-10T22:35:37.274Z,31.63
2022-10-10T22:38:04.172Z,32.60
2022-10-10T22:40:30.977Z,32.15
2022-10-10T22:42:57.864Z,31.73
2022-10-10T22:45:24.611Z,31.80
2022-10-10T22:47:51.061Z,32.50
2022-10-10T22:50:18.383Z,30.50
2022-10-10T22:52:45.096Z,30.63
2022-10-10T22:55:17.221Z,31.30
2022-10-10T22:57:44.742Z,30.85
2022-10-10T23:00:12.338Z,31.08
2022-10-10T23:02:39.051Z,30.92
2022-10-10T23:05:06.084Z,29.60
2022-10-10T23:07:32.778Z,30.63
2022-10-10T23:09:59.180Z,30.92
2022-10-10T23:12:25.556Z,30.45
2022-10-10T23:14:52.028Z,30.92
2022-10-10T23:17:18.457Z,30.88
2022-10-10T23:19:44.885Z,30.50
2022-10-10T23:22:12.789Z,29.48
2022-10-10T23:24:39.921Z,30.65
2022-10-10T23:27:06.377Z,29.77
2022-10-10T23:29:33.101Z,31.10
2022-10-10T23:31:59.599Z,30.13
2022-10-10T23:34:26.131Z,29.98
2022-10-10T23:36:52.804Z,30.08
2022-10-10T23:39:19.188Z,30.73
2022-10-10T23:41:45.674Z,30.30
2022-10-10T23:44:12.138Z,29.67
2022-10-10T23:46:38.780Z,29.60
2022-10-10T23:49:05.148Z,29.95
2022-10-10T23:51:32.150Z,30.08
2022-10-10T23:53:58.715Z,30.08
2022-10-10T23:56:25.226Z,29.88
2022-10-10T23:58:51.666Z,30.63
